Time;durP1;ratioP1;P1;durP2;ratioP2;P2;SDS_P1;SDS_P2;PMS_P1;PMS_P2;Temp;Humidity;BMP_temperature;BMP_pressure;BME280_temperature;BME280_humidity;BME280_pressure;Samples;Min_cycle;Max_cycle;Signal;HPM_P1;HPM_P2
2023/12/24 00:01:08;;;;;;;21.47;11.17;;;;;;;;;;10289772;28;20105;-78
2023/12/24 00:06:09;;;;;;;22.20;10.80;;;;;;;;;;10288248;28;20034;-78
2023/12/24 00:11:10;;;;;;;24.10;10.80;;;;;;;;;;10291190;28;20034;-78
2023/12/24 00:16:11;;;;;;;22.37;10.40;;;;;;;;;;10287925;28;20035;-78
2023/12/24 00:21:13;;;;;;;18.23;9.00;;;;;;;;;;10288992;28;20050;-78
2023/12/24 00:26:14;;;;;;;17.93;8.97;;;;;;;;;;10287044;28;20030;-78
2023/12/24 00:31:15;;;;;;;18.23;9.10;;;;;;;;;;10292689;28;20036;-78
2023/12/24 00:36:16;;;;;;;16.20;8.43;;;;;;;;;;10285203;28;20034;-78
2023/12/24 00:41:17;;;;;;;17.13;9.50;;;;;;;;;;10295594;28;20042;-78
2023/12/24 00:46:18;;;;;;;20.60;10.10;;;;;;;;;;10288795;28;20109;-78
2023/12/24 00:51:19;;;;;;;16.23;7.80;;;;;;;;;;10298172;28;20049;-78
2023/12/24 00:56:20;;;;;;;20.17;8.97;;;;;;;;;;10285784;28;20059;-79
2023/12/24 01:01:21;;;;;;;16.90;7.83;;;;;;;;;;10296174;28;20038;-79
2023/12/24 01:06:22;;;;;;;13.00;7.20;;;;;;;;;;10290456;28;20046;-78
2023/12/24 01:11:23;;;;;;;13.30;7.13;;;;;;;;;;10291758;28;20038;-78
2023/12/24 01:16:24;;;;;;;15.27;7.07;;;;;;;;;;10294247;28;20035;-79
2023/12/24 01:21:25;;;;;;;14.87;7.20;;;;;;;;;;10297629;28;20510;-77
2023/12/24 01:26:26;;;;;;;14.97;7.50;;;;;;;;;;10287511;28;20027;-79
2023/12/24 01:31:34;;;;;;;20.60;9.60;;;;;;;;;;10301595;28;20043;-78
2023/12/24 01:36:39;;;;;;;17.70;8.87;;;;;;;;;;10291336;28;20038;-79
2023/12/24 01:41:40;;;;;;;23.80;10.67;;;;;;;;;;10284743;28;20042;-78
2023/12/24 01:46:41;;;;;;;12.70;6.53;;;;;;;;;;10298130;28;20076;-78
2023/12/24 01:51:42;;;;;;;11.97;5.63;;;;;;;;;;10299627;28;20114;-78
2023/12/24 01:56:43;;;;;;;9.73;5.60;;;;;;;;;;10284926;28;20058;-78
2023/12/24 02:01:45;;;;;;;16.00;6.80;;;;;;;;;;10296102;28;20046;-78
2023/12/24 02:06:46;;;;;;;10.00;5.90;;;;;;;;;;10296385;28;20027;-78
2023/12/24 02:11:47;;;;;;;9.83;5.50;;;;;;;;;;10285038;28;20079;-79
2023/12/24 02:16:49;;;;;;;9.10;5.20;;;;;;;;;;10307315;28;20030;-78
2023/12/24 02:21:50;;;;;;;10.33;6.03;;;;;;;;;;10298328;28;20046;-78
2023/12/24 02:27:04;;;;;;;9.57;5.87;;;;;;;;;;10294616;28;20030;-78
2023/12/24 02:32:07;;;;;;;12.60;6.93;;;;;;;;;;10285777;28;20499;-78
2023/12/24 02:37:08;;;;;;;9.50;4.50;;;;;;;;;;10287519;28;20035;-78
2023/12/24 02:42:09;;;;;;;6.87;4.43;;;;;;;;;;10304411;28;20446;-79
2023/12/24 02:47:10;;;;;;;12.20;5.00;;;;;;;;;;10303554;28;20038;-78
2023/12/24 02:52:11;;;;;;;13.50;5.37;;;;;;;;;;10298453;28;20037;-78
2023/12/24 02:57:13;;;;;;;8.40;4.63;;;;;;;;;;10298139;28;20453;-78
2023/12/24 03:02:14;;;;;;;12.60;5.33;;;;;;;;;;10312179;28;20916;-79
2023/12/24 03:07:14;;;;;;;7.83;3.30;;;;;;;;;;10298133;28;20030;-79
2023/12/24 03:12:17;;;;;;;7.13;2.93;;;;;;;;;;10303133;28;20030;-78
2023/12/24 03:17:24;;;;;;;6.87;2.87;;;;;;;;;;10304302;28;20030;-79
2023/12/24 03:22:25;;;;;;;4.63;3.20;;;;;;;;;;10291855;28;20105;-78
2023/12/24 03:27:26;;;;;;;10.40;5.20;;;;;;;;;;10294875;28;20097;-78
2023/12/24 03:32:33;;;;;;;11.97;3.77;;;;;;;;;;10292468;28;20431;-78
2023/12/24 03:37:35;;;;;;;10.13;4.10;;;;;;;;;;10291083;28;20034;-78
2023/12/24 03:42:36;;;;;;;6.23;3.53;;;;;;;;;;10295646;28;20042;-78
2023/12/24 03:47:37;;;;;;;7.73;3.07;;;;;;;;;;10292460;28;20046;-78
2023/12/24 03:52:38;;;;;;;10.90;5.00;;;;;;;;;;10289453;28;20038;-78
2023/12/24 03:57:39;;;;;;;11.80;6.00;;;;;;;;;;10290470;28;20820;-78
2023/12/24 04:02:39;;;;;;;9.23;4.70;;;;;;;;;;10308240;28;20050;-79
2023/12/24 04:07:41;;;;;;;7.13;4.17;;;;;;;;;;10288319;28;20121;-78
2023/12/24 04:12:42;;;;;;;8.33;4.33;;;;;;;;;;10295515;28;20035;-79
2023/12/24 04:17:43;;;;;;;5.60;3.20;;;;;;;;;;10273989;28;20548;-78
2023/12/24 04:22:44;;;;;;;6.97;3.43;;;;;;;;;;10304390;28;20069;-78
2023/12/24 04:27:45;;;;;;;8.53;3.07;;;;;;;;;;10296347;28;20034;-78
2023/12/24 04:32:46;;;;;;;9.23;2.60;;;;;;;;;;10290471;28;20038;-78
2023/12/24 04:37:47;;;;;;;4.87;2.80;;;;;;;;;;10287673;28;20410;-78
2023/12/24 04:42:48;;;;;;;4.83;2.93;;;;;;;;;;10292189;28;20035;-79
2023/12/24 04:47:49;;;;;;;9.13;4.00;;;;;;;;;;10287540;28;20047;-79
2023/12/24 04:52:50;;;;;;;19.93;5.50;;;;;;;;;;10300596;28;20057;-79
2023/12/24 04:57:51;;;;;;;27.90;9.50;;;;;;;;;;10279673;28;20050;-79
2023/12/24 05:02:52;;;;;;;47.50;16.40;;;;;;;;;;10287634;28;20049;-79
2023/12/24 05:07:53;;;;;;;25.33;9.70;;;;;;;;;;10286414;28;20380;-79
2023/12/24 05:12:54;;;;;;;17.87;7.83;;;;;;;;;;10288048;28;20035;-79
2023/12/24 05:17:55;;;;;;;17.77;9.00;;;;;;;;;;10293924;28;20173;-79
2023/12/24 05:22:56;;;;;;;19.77;10.57;;;;;;;;;;10303426;28;20046;-79
2023/12/24 05:27:57;;;;;;;20.17;9.97;;;;;;;;;;10297334;28;20026;-79
2023/12/24 05:32:58;;;;;;;21.93;10.10;;;;;;;;;;10290021;28;20035;-78
2023/12/24 05:37:59;;;;;;;20.30;9.57;;;;;;;;;;10291166;28;20398;-79
2023/12/24 05:43:00;;;;;;;27.70;12.20;;;;;;;;;;10286506;28;20039;-79
2023/12/24 05:48:02;;;;;;;36.10;14.97;;;;;;;;;;10278160;28;20054;-79
2023/12/24 05:53:03;;;;;;;25.67;12.33;;;;;;;;;;10299737;28;20034;-79
2023/12/24 05:58:04;;;;;;;27.43;12.00;;;;;;;;;;10292567;28;20050;-79
2023/12/24 06:03:05;;;;;;;35.60;13.03;;;;;;;;;;10294549;28;20452;-79
2023/12/24 06:08:06;;;;;;;40.00;14.73;;;;;;;;;;10292578;28;20762;-79
2023/12/24 06:13:07;;;;;;;31.50;14.30;;;;;;;;;;10284846;28;20034;-79
2023/12/24 06:18:09;;;;;;;33.50;13.13;;;;;;;;;;10292509;28;20110;-79
2023/12/24 06:23:10;;;;;;;25.30;12.43;;;;;;;;;;10290000;28;20094;-79
2023/12/24 06:28:11;;;;;;;29.97;12.60;;;;;;;;;;10288548;28;20154;-79
2023/12/24 06:33:12;;;;;;;45.20;17.03;;;;;;;;;;10294237;28;20511;-79
2023/12/24 06:38:13;;;;;;;37.83;15.03;;;;;;;;;;10295269;28;20026;-79
2023/12/24 06:43:14;;;;;;;39.57;16.30;;;;;;;;;;10305136;28;20026;-78
2023/12/24 06:48:15;;;;;;;29.90;13.77;;;;;;;;;;10292518;28;20026;-77
2023/12/24 06:53:17;;;;;;;25.40;11.97;;;;;;;;;;10296292;28;20022;-79
2023/12/24 06:58:18;;;;;;;25.90;11.33;;;;;;;;;;10293268;28;20058;-79
2023/12/24 07:03:19;;;;;;;25.80;12.23;;;;;;;;;;10296005;28;20062;-79
2023/12/24 07:08:22;;;;;;;26.57;12.13;;;;;;;;;;10292785;28;20093;-80
2023/12/24 07:13:23;;;;;;;24.73;11.83;;;;;;;;;;10294234;28;20070;-79
2023/12/24 07:18:24;;;;;;;41.87;18.00;;;;;;;;;;10295488;28;20861;-80
2023/12/24 07:23:25;;;;;;;47.03;20.07;;;;;;;;;;10295624;28;20049;-80
2023/12/24 07:28:26;;;;;;;38.43;18.77;;;;;;;;;;10300784;28;20440;-79
2023/12/24 07:33:33;;;;;;;40.13;17.77;;;;;;;;;;10294767;28;20045;-81
2023/12/24 07:38:34;;;;;;;150.00;57.43;;;;;;;;;;10292566;28;20525;-79
2023/12/24 07:43:35;;;;;;;226.87;80.30;;;;;;;;;;10295075;28;20030;-80
2023/12/24 07:48:36;;;;;;;107.57;44.80;;;;;;;;;;10296241;28;20027;-81
2023/12/24 07:53:37;;;;;;;114.30;52.93;;;;;;;;;;10293184;28;20030;-80
2023/12/24 07:58:38;;;;;;;100.73;44.20;;;;;;;;;;10287437;28;20054;-79
2023/12/24 08:03:40;;;;;;;179.63;76.70;;;;;;;;;;10282296;28;20041;-80
2023/12/24 08:08:41;;;;;;;67.10;30.67;;;;;;;;;;10298484;28;20038;-80
2023/12/24 08:13:42;;;;;;;79.07;32.17;;;;;;;;;;10300358;28;20050;-80
2023/12/24 08:18:43;;;;;;;81.53;34.67;;;;;;;;;;10302970;28;20418;-80
2023/12/24 08:23:44;;;;;;;60.80;31.70;;;;;;;;;;10300063;28;20026;-80
2023/12/24 08:28:45;;;;;;;63.10;29.03;;;;;;;;;;10295039;28;20030;-81
2023/12/24 08:33:46;;;;;;;60.50;30.47;;;;;;;;;;10305010;28;20045;-82
2023/12/24 08:38:49;;;;;;;60.30;32.83;;;;;;;;;;10300684;28;20398;-82
2023/12/24 08:43:50;;;;;;;71.87;34.50;;;;;;;;;;10305030;28;20015;-81
2023/12/24 08:48:51;;;;;;;47.93;25.17;;;;;;;;;;10297215;28;20545;-81
2023/12/24 08:53:52;;;;;;;43.73;21.40;;;;;;;;;;10304960;28;20032;-81
2023/12/24 08:58:53;;;;;;;46.07;24.77;;;;;;;;;;10289566;28;20121;-81
2023/12/24 09:03:54;;;;;;;56.40;28.43;;;;;;;;;;10286851;28;20031;-82
2023/12/24 09:08:55;;;;;;;58.60;32.70;;;;;;;;;;10286624;28;20019;-81
2023/12/24 09:14:02;;;;;;;59.50;34.63;;;;;;;;;;10267576;28;20041;-82
2023/12/24 09:19:09;;;;;;;51.13;29.43;;;;;;;;;;10271943;28;20046;-82
2023/12/24 09:24:10;;;;;;;51.33;26.77;;;;;;;;;;10290961;28;20026;-82
2023/12/24 09:29:18;;;;;;;59.33;30.93;;;;;;;;;;10284483;28;20446;-82
2023/12/24 09:34:20;;;;;;;67.07;33.13;;;;;;;;;;10282483;28;20085;-81
2023/12/24 09:39:21;;;;;;;54.37;31.63;;;;;;;;;;10280761;28;20064;-80
2023/12/24 09:44:23;;;;;;;55.70;31.47;;;;;;;;;;10294613;28;20486;-80
2023/12/24 09:49:24;;;;;;;45.47;23.77;;;;;;;;;;10275717;28;20051;-79
2023/12/24 09:54:25;;;;;;;47.47;25.43;;;;;;;;;;10291264;28;20466;-79
2023/12/24 10:02:12;;;;;;;216.43;98.70;;;;;;;;;;10353020;27;8197739;-79
2023/12/24 10:07:14;;;;;;;167.87;77.23;;;;;;;;;;10600507;27;20160;-80
2023/12/24 10:12:15;;;;;;;145.07;75.00;;;;;;;;;;10608566;27;20024;-81
2023/12/24 10:17:27;;;;;;;77.60;38.80;;;;;;;;;;10605623;27;20057;-82
2023/12/24 10:22:28;;;;;;;60.17;31.70;;;;;;;;;;10603397;27;20057;-80
2023/12/24 10:27:29;;;;;;;69.03;36.00;;;;;;;;;;10583925;27;20085;-83
2023/12/24 10:32:30;;;;;;;48.93;28.30;;;;;;;;;;10565069;28;20024;-83
2023/12/24 10:37:31;;;;;;;50.70;27.77;;;;;;;;;;10557351;28;20038;-82
2023/12/24 10:42:32;;;;;;;61.57;31.47;;;;;;;;;;10554141;28;20056;-81
2023/12/24 10:47:33;;;;;;;66.10;37.27;;;;;;;;;;10558553;28;20539;-80
2023/12/24 10:52:40;;;;;;;63.57;33.50;;;;;;;;;;10547969;28;20027;-83
2023/12/24 10:57:41;;;;;;;58.67;29.23;;;;;;;;;;10543002;28;20130;-85
2023/12/24 11:02:46;;;;;;;93.83;41.93;;;;;;;;;;10564692;28;20066;-85
2023/12/24 11:07:48;;;;;;;64.27;33.73;;;;;;;;;;10538481;28;20449;-83
2023/12/24 11:12:49;;;;;;;55.67;30.37;;;;;;;;;;10522994;28;20036;-82
2023/12/24 11:17:50;;;;;;;53.57;28.50;;;;;;;;;;10524360;28;20532;-82
2023/12/24 11:23:07;;;;;;;59.83;30.17;;;;;;;;;;10550391;28;20039;-83
2023/12/24 11:28:35;;;;;;;54.53;28.57;;;;;;;;;;10511680;28;20024;-85
2023/12/24 11:34:04;;;;;;;57.57;28.80;;;;;;;;;;10507649;28;20032;-85
2023/12/24 11:39:07;;;;;;;53.10;27.73;;;;;;;;;;10513530;28;20048;-83
2023/12/24 11:44:08;;;;;;;62.77;30.57;;;;;;;;;;10524534;28;20028;-79
2023/12/24 11:49:12;;;;;;;58.30;28.10;;;;;;;;;;10531341;28;20067;-79
2023/12/24 11:54:39;;;;;;;55.23;28.23;;;;;;;;;;10530686;28;20036;-82
2023/12/24 11:59:42;;;;;;;58.50;28.27;;;;;;;;;;10500921;28;20052;-80
2023/12/24 12:04:43;;;;;;;54.97;28.17;;;;;;;;;;10520606;28;20086;-82
2023/12/24 12:09:44;;;;;;;49.63;26.17;;;;;;;;;;10514999;28;20056;-82
2023/12/24 12:14:45;;;;;;;48.30;25.80;;;;;;;;;;10512671;28;20107;-79
2023/12/24 12:19:46;;;;;;;44.73;22.83;;;;;;;;;;10527084;28;20067;-79
2023/12/24 12:24:47;;;;;;;47.20;23.80;;;;;;;;;;10527809;28;20039;-81
2023/12/24 12:29:48;;;;;;;46.00;23.00;;;;;;;;;;10513525;28;20092;-82
2023/12/24 12:34:49;;;;;;;49.43;24.23;;;;;;;;;;10526299;28;20104;-82
2023/12/24 12:39:51;;;;;;;42.93;21.63;;;;;;;;;;10495454;28;20162;-86
2023/12/24 12:44:52;;;;;;;50.20;25.83;;;;;;;;;;10526281;28;20414;-84
2023/12/24 12:49:53;;;;;;;49.90;25.83;;;;;;;;;;10502405;28;20024;-85
2023/12/24 12:55:04;;;;;;;68.63;32.57;;;;;;;;;;10496503;28;20055;-92
2023/12/24 13:00:09;;;;;;;64.43;30.13;;;;;;;;;;10521705;28;20069;-80
2023/12/24 13:05:23;;;;;;;53.67;26.77;;;;;;;;;;10509399;28;20421;-86
2023/12/24 13:10:31;;;;;;;50.40;26.53;;;;;;;;;;10497793;28;20043;-85
2023/12/24 13:15:33;;;;;;;63.10;29.30;;;;;;;;;;10498966;28;20028;-86
2023/12/24 13:20:34;;;;;;;72.63;32.33;;;;;;;;;;10510619;28;20198;-89
2023/12/24 13:25:35;;;;;;;59.80;29.17;;;;;;;;;;10522305;28;20073;-85
2023/12/24 13:30:44;;;;;;;71.97;33.10;;;;;;;;;;10519865;28;20432;-85
2023/12/24 13:35:45;;;;;;;88.53;38.33;;;;;;;;;;10526893;28;20574;-85
2023/12/24 13:40:47;;;;;;;83.60;37.43;;;;;;;;;;10507590;28;20769;-84
2023/12/24 13:45:48;;;;;;;75.30;35.10;;;;;;;;;;10521498;28;20077;-82
2023/12/24 13:50:50;;;;;;;67.50;33.30;;;;;;;;;;10503918;28;20039;-84
2023/12/24 13:55:52;;;;;;;61.23;31.70;;;;;;;;;;10506909;28;20059;-82
2023/12/24 14:00:53;;;;;;;63.50;29.90;;;;;;;;;;10516750;28;20072;-83
2023/12/24 14:05:55;;;;;;;50.60;26.57;;;;;;;;;;10509975;28;20044;-84
2023/12/24 14:10:56;;;;;;;54.30;26.70;;;;;;;;;;10510650;28;20383;-79
2023/12/24 14:15:58;;;;;;;51.80;27.30;;;;;;;;;;10503077;28;20028;-82
2023/12/24 14:20:59;;;;;;;53.70;26.53;;;;;;;;;;10518880;28;20036;-82
2023/12/24 14:26:00;;;;;;;60.17;28.53;;;;;;;;;;10520664;28;20525;-83
2023/12/24 14:31:01;;;;;;;54.73;27.03;;;;;;;;;;10516643;28;20028;-83
2023/12/24 14:36:03;;;;;;;54.70;26.50;;;;;;;;;;10515635;28;20344;-82
2023/12/24 14:41:04;;;;;;;53.93;26.83;;;;;;;;;;10512528;28;20090;-82
2023/12/24 14:46:05;;;;;;;47.30;24.53;;;;;;;;;;10512088;28;20024;-86
2023/12/24 14:51:09;;;;;;;50.23;27.10;;;;;;;;;;10542436;28;20079;-82
2023/12/24 14:56:11;;;;;;;74.10;32.53;;;;;;;;;;10534891;28;20024;-83
2023/12/24 15:01:12;;;;;;;76.33;36.23;;;;;;;;;;10534576;28;20130;-82
2023/12/24 15:06:13;;;;;;;109.57;47.17;;;;;;;;;;10535657;28;20032;-84
2023/12/24 15:11:17;;;;;;;118.30;51.53;;;;;;;;;;10535233;28;20028;-82
2023/12/24 15:16:18;;;;;;;100.67;47.40;;;;;;;;;;10535762;28;20379;-83
2023/12/24 15:21:19;;;;;;;139.97;57.63;;;;;;;;;;10517027;28;20689;-83
2023/12/24 15:26:20;;;;;;;116.33;52.87;;;;;;;;;;10516836;28;20039;-83
2023/12/24 15:31:29;;;;;;;124.10;55.93;;;;;;;;;;10534624;28;20032;-83
2023/12/24 15:36:30;;;;;;;116.37;53.07;;;;;;;;;;10517328;28;20040;-84
2023/12/24 15:41:31;;;;;;;116.67;55.13;;;;;;;;;;10533669;28;20040;-83
2023/12/24 15:46:32;;;;;;;93.10;44.17;;;;;;;;;;10533038;28;20440;-83
2023/12/24 15:51:33;;;;;;;87.43;44.37;;;;;;;;;;10515254;28;20470;-82
2023/12/24 15:56:34;;;;;;;86.77;42.00;;;;;;;;;;10556743;28;20030;-82
2023/12/24 16:01:41;;;;;;;81.27;37.83;;;;;;;;;;10532633;28;20112;-83
2023/12/24 16:06:42;;;;;;;77.50;38.00;;;;;;;;;;10532746;28;20539;-82
2023/12/24 16:11:44;;;;;;;79.43;36.30;;;;;;;;;;10533167;28;20108;-82
2023/12/24 16:16:45;;;;;;;71.13;34.17;;;;;;;;;;10532059;28;20062;-83
2023/12/24 16:21:46;;;;;;;75.43;32.83;;;;;;;;;;10531911;28;20119;-82
2023/12/24 16:26:47;;;;;;;68.57;33.20;;;;;;;;;;10532013;28;20498;-84
2023/12/24 16:31:48;;;;;;;68.70;32.87;;;;;;;;;;10531965;28;20028;-83
2023/12/24 16:36:49;;;;;;;73.87;36.87;;;;;;;;;;10532128;28;20594;-83
2023/12/24 16:41:50;;;;;;;63.97;34.97;;;;;;;;;;10530760;28;20040;-81
2023/12/24 16:46:51;;;;;;;67.10;34.57;;;;;;;;;;10530936;28;20480;-82
2023/12/24 16:51:52;;;;;;;58.83;32.33;;;;;;;;;;10531028;28;20051;-81
2023/12/24 16:56:53;;;;;;;64.50;34.70;;;;;;;;;;10531325;28;20107;-83
2023/12/24 17:01:54;;;;;;;59.93;33.33;;;;;;;;;;10530491;28;20056;-84
2023/12/24 17:06:55;;;;;;;67.67;36.03;;;;;;;;;;10529629;28;20611;-84
2023/12/24 17:11:56;;;;;;;63.37;35.33;;;;;;;;;;10511353;28;20036;-81
2023/12/24 17:16:57;;;;;;;58.77;32.70;;;;;;;;;;10529946;28;20036;-81
2023/12/24 17:21:58;;;;;;;58.43;32.97;;;;;;;;;;10511242;28;20032;-81
2023/12/24 17:26:59;;;;;;;54.03;31.60;;;;;;;;;;10529639;28;20132;-82
2023/12/24 17:32:00;;;;;;;48.90;28.73;;;;;;;;;;10529387;28;20035;-83
2023/12/24 17:37:01;;;;;;;44.97;26.30;;;;;;;;;;10530820;28;20032;-82
2023/12/24 17:42:03;;;;;;;40.90;24.47;;;;;;;;;;10504523;28;20036;-85
2023/12/24 17:47:04;;;;;;;45.77;25.10;;;;;;;;;;10525140;28;20085;-82
2023/12/24 17:52:06;;;;;;;46.43;23.67;;;;;;;;;;10511005;28;20028;-84
2023/12/24 17:57:07;;;;;;;37.43;20.43;;;;;;;;;;10510326;28;20028;-82
2023/12/24 18:02:08;;;;;;;29.37;15.83;;;;;;;;;;10527950;28;20550;-81
2023/12/24 18:07:09;;;;;;;29.03;16.43;;;;;;;;;;10527749;28;20399;-83
2023/12/24 18:12:14;;;;;;;30.57;16.50;;;;;;;;;;10510101;28;20040;-82
2023/12/24 18:17:14;;;;;;;34.00;17.27;;;;;;;;;;10528302;28;20028;-82
2023/12/24 18:22:16;;;;;;;29.37;16.30;;;;;;;;;;10534263;28;20055;-82
2023/12/24 18:27:17;;;;;;;37.30;19.23;;;;;;;;;;10537021;28;20036;-81
2023/12/24 18:32:18;;;;;;;23.67;13.57;;;;;;;;;;10536362;28;20040;-82
2023/12/24 18:37:19;;;;;;;38.37;19.30;;;;;;;;;;10536947;28;20106;-80
2023/12/24 18:42:20;;;;;;;39.80;19.40;;;;;;;;;;10536754;28;20505;-82
2023/12/24 18:47:21;;;;;;;27.87;15.27;;;;;;;;;;10536228;28;20440;-80
2023/12/24 18:52:22;;;;;;;27.87;16.07;;;;;;;;;;10535413;28;20032;-81
2023/12/24 18:57:23;;;;;;;26.80;14.43;;;;;;;;;;10536150;28;20043;-80
2023/12/24 19:02:24;;;;;;;24.47;14.30;;;;;;;;;;10535547;28;20419;-80
2023/12/24 19:07:25;;;;;;;37.37;18.93;;;;;;;;;;10535201;28;20024;-82
2023/12/24 19:12:26;;;;;;;24.30;13.87;;;;;;;;;;10517631;28;20043;-82
2023/12/24 19:17:27;;;;;;;24.07;15.83;;;;;;;;;;10534004;28;20050;-80
2023/12/24 19:22:28;;;;;;;22.63;12.57;;;;;;;;;;10534322;28;20111;-81
2023/12/24 19:27:29;;;;;;;24.13;14.87;;;;;;;;;;10518926;28;20040;-84
2023/12/24 19:32:36;;;;;;;29.50;15.03;;;;;;;;;;10513101;28;20571;-81
2023/12/24 19:37:37;;;;;;;22.50;12.97;;;;;;;;;;10507677;28;20043;-81
2023/12/24 19:42:38;;;;;;;25.00;15.63;;;;;;;;;;10531084;28;20060;-76
2023/12/24 19:47:39;;;;;;;26.00;15.60;;;;;;;;;;10525152;28;20050;-77
2023/12/24 19:52:40;;;;;;;31.73;17.13;;;;;;;;;;10512334;28;20024;-78
2023/12/24 19:57:44;;;;;;;28.30;14.17;;;;;;;;;;10518501;28;20043;-80
2023/12/24 20:02:46;;;;;;;27.10;13.57;;;;;;;;;;10514455;28;20158;-78
2023/12/24 20:07:47;;;;;;;18.37;9.77;;;;;;;;;;10513812;28;20031;-80
2023/12/24 20:12:48;;;;;;;17.10;9.27;;;;;;;;;;10514952;28;20535;-79
2023/12/24 20:17:49;;;;;;;19.67;11.87;;;;;;;;;;10523471;28;20552;-79
2023/12/24 20:22:50;;;;;;;21.37;12.20;;;;;;;;;;10522709;28;20131;-79
2023/12/24 20:27:52;;;;;;;22.03;14.20;;;;;;;;;;10516729;28;20496;-78
2023/12/24 20:32:53;;;;;;;18.67;12.20;;;;;;;;;;10512686;28;20013;-78
2023/12/24 20:38:01;;;;;;;19.93;11.50;;;;;;;;;;10512022;28;20125;-82
2023/12/24 20:43:03;;;;;;;18.17;8.63;;;;;;;;;;10518060;28;20438;-82
2023/12/24 20:48:04;;;;;;;16.50;8.43;;;;;;;;;;10519880;28;20024;-78
2023/12/24 20:53:05;;;;;;;18.77;9.33;;;;;;;;;;10520278;28;20058;-83
2023/12/24 20:58:07;;;;;;;19.17;8.07;;;;;;;;;;10535538;28;20044;-84
2023/12/24 21:03:08;;;;;;;14.00;8.53;;;;;;;;;;10518425;28;20080;-78
2023/12/24 21:08:25;;;;;;;15.07;8.23;;;;;;;;;;10517381;28;20543;-81
2023/12/24 21:13:26;;;;;;;17.80;10.67;;;;;;;;;;10521560;28;20376;-83
2023/12/24 21:18:27;;;;;;;25.57;14.30;;;;;;;;;;10507959;28;20044;-78
2023/12/24 21:23:28;;;;;;;41.27;20.87;;;;;;;;;;10490815;28;20048;-82
2023/12/24 21:28:29;;;;;;;29.97;17.30;;;;;;;;;;10506921;28;20387;-78
2023/12/24 21:33:30;;;;;;;20.37;12.33;;;;;;;;;;10513580;28;20036;-81
2023/12/24 21:38:31;;;;;;;27.37;16.63;;;;;;;;;;10509137;28;20039;-79
2023/12/24 21:43:32;;;;;;;22.10;13.20;;;;;;;;;;10524352;28;20036;-79
2023/12/24 21:48:33;;;;;;;19.00;12.20;;;;;;;;;;10520709;28;20028;-78
2023/12/24 21:53:37;;;;;;;21.07;13.60;;;;;;;;;;10515342;28;20024;-78
2023/12/24 21:58:39;;;;;;;25.67;14.82;;;;;;;;;;10523116;28;20150;-79
2023/12/24 22:03:40;;;;;;;21.97;12.70;;;;;;;;;;10522259;28;20034;-79
2023/12/24 22:08:41;;;;;;;22.40;14.10;;;;;;;;;;10523515;28;20048;-81
2023/12/24 22:13:42;;;;;;;26.97;16.30;;;;;;;;;;10524343;28;20460;-79
2023/12/24 22:18:43;;;;;;;22.83;14.23;;;;;;;;;;10516083;28;20403;-79
2023/12/24 22:23:44;;;;;;;22.77;13.90;;;;;;;;;;10516758;28;20081;-80
2023/12/24 22:28:47;;;;;;;25.50;14.87;;;;;;;;;;10521509;28;20036;-80
2023/12/24 22:33:48;;;;;;;25.70;14.33;;;;;;;;;;10520872;28;20063;-79
2023/12/24 22:38:49;;;;;;;21.07;12.37;;;;;;;;;;10525096;28;20340;-82
2023/12/24 22:43:50;;;;;;;23.60;13.73;;;;;;;;;;10526187;28;20063;-81
2023/12/24 22:48:51;;;;;;;17.10;11.50;;;;;;;;;;10527479;28;20027;-82
2023/12/24 22:53:52;;;;;;;18.53;11.70;;;;;;;;;;10527308;28;20085;-86
2023/12/24 22:58:53;;;;;;;42.70;20.57;;;;;;;;;;10523296;28;20564;-81
2023/12/24 23:03:54;;;;;;;25.53;14.50;;;;;;;;;;10528557;28;20127;-86
2023/12/24 23:08:55;;;;;;;20.50;12.77;;;;;;;;;;10526720;28;20056;-82
2023/12/24 23:13:56;;;;;;;19.13;10.93;;;;;;;;;;10533027;28;20032;-84
2023/12/24 23:18:57;;;;;;;30.27;17.00;;;;;;;;;;10533219;28;20052;-79
2023/12/24 23:23:58;;;;;;;17.97;10.03;;;;;;;;;;10535692;28;20122;-82
2023/12/24 23:28:59;;;;;;;18.80;9.73;;;;;;;;;;10523832;28;20032;-81
2023/12/24 23:34:00;;;;;;;15.83;9.93;;;;;;;;;;10528912;28;20502;-82
2023/12/24 23:39:01;;;;;;;14.70;9.27;;;;;;;;;;10525358;28;20032;-83
2023/12/24 23:44:02;;;;;;;47.37;23.63;;;;;;;;;;10526023;28;20039;-81
2023/12/24 23:49:03;;;;;;;16.37;10.27;;;;;;;;;;10540760;28;20110;-82
2023/12/24 23:54:04;;;;;;;16.73;9.87;;;;;;;;;;10527088;28;20077;-84
2023/12/24 23:59:06;;;;;;;14.40;8.97;;;;;;;;;;10532309;28;20052;-80
